Wetterdaten: Woche 20.06.16 - 26.06.16 (KW25)
Datum Zeit Temp. Aussen Temp. o. S. +5cm Feuchte Auss BlattFeu 1 Luftdruck Regen Sonnenschein Regendauer Solar Windben Empfang
20.06.2016 00:00 12,1 C 11,0 C 9,5 C 88 % 2 lf 1023,0 hPa 0,0 l/m 0,00 h 0,00 h 5 W/m 2,2 km/h (1 Bft) 96,55 %
20.06.2016 01:00 11,5 C 11,3 C 9,4 C 91 % 1 lf 1022,8 hPa 0,0 l/m 0,00 h 0,00 h 5 W/m 5,9 km/h (2 Bft) 95,34 %
20.06.2016 02:00 11,7 C 12,2 C 10,0 C 91 % 0 lf 1022,4 hPa 0,0 l/m 0,00 h 0,00 h 5 W/m 8,6 km/h (2 Bft) 94,90 %
20.06.2016 03:00 11,8 C 11,6 C 9,9 C 89 % 0 lf 1022,0 hPa 0,0 l/m 0,00 h 0,00 h 5 W/m 7,4 km/h (2 Bft) 98,38 %
20.06.2016 04:00 11,1 C 10,7 C 9,2 C 90 % 0 lf 1021,7 hPa 0,0 l/m 0,00 h 0,00 h 5 W/m 7,2 km/h (2 Bft) 75,28 %
20.06.2016 05:00 10,3 C 10,1 C 8,9 C 92 % 0 lf 1021,3 hPa 0,0 l/m 0,47 h 0,00 h 25 W/m 10,6 km/h (2 Bft) 94,49 %
20.06.2016 06:00 10,2 C 10,8 C 9,6 C 94 % 0 lf 1020,7 hPa 0,0 l/m 0,93 h 0,00 h 114 W/m 12,2 km/h (2 Bft) 97,65 %
20.06.2016 07:00 11,2 C 12,5 C 11,6 C 92 % 0 lf 1020,3 hPa 0,0 l/m 0,67 h 0,00 h 179 W/m 14,3 km/h (3 Bft) 94,75 %
20.06.2016 08:00 12,9 C 15,0 C 14,2 C 90 % 0 lf 1020,1 hPa 0,0 l/m 0,43 h 0,00 h 237 W/m 13,2 km/h (3 Bft) 96,86 %
20.06.2016 09:00 15,8 C 18,6 C 18,1 C 80 % 0 lf 1019,7 hPa 0,0 l/m 0,90 h 0,00 h 341 W/m 15,7 km/h (3 Bft) 96,58 %
20.06.2016 10:00 17,9 C 19,8 C 19,3 C 77 % 0 lf 1019,0 hPa 0,0 l/m 0,30 h 0,00 h 315 W/m 21,5 km/h (4 Bft) 94,24 %
20.06.2016 11:00 18,9 C 21,3 C 20,8 C 74 % 0 lf 1018,3 hPa 0,0 l/m 0,40 h 0,13 h 394 W/m 21,0 km/h (4 Bft) 98,31 %
20.06.2016 12:00 20,2 C 22,8 C 22,3 C 70 % 0 lf 1017,9 hPa 0,0 l/m 0,57 h 0,13 h 427 W/m 23,8 km/h (4 Bft) 95,33 %
20.06.2016 13:00 20,2 C 22,0 C 21,4 C 70 % 0 lf 1017,2 hPa 0,0 l/m 0,03 h 0,10 h 321 W/m 21,5 km/h (4 Bft) 96,14 %
20.06.2016 14:00 20,6 C 22,3 C 21,7 C 69 % 0 lf 1016,4 hPa 0,0 l/m 0,07 h 0,13 h 325 W/m 21,2 km/h (4 Bft) 96,43 %
20.06.2016 15:00 20,8 C 22,1 C 21,4 C 68 % 0 lf 1015,8 hPa 0,0 l/m 0,00 h 0,37 h 281 W/m 21,4 km/h (4 Bft) 95,16 %
20.06.2016 16:00 19,2 C 17,1 C 15,8 C 77 % 10 lf 1015,4 hPa 0,4 l/m 0,00 h 1,00 h 118 W/m 20,2 km/h (4 Bft) 96,17 %
20.06.2016 17:00 17,4 C 15,7 C 14,9 C 89 % 15 lf 1014,8 hPa 2,4 l/m 0,00 h 1,00 h 75 W/m 16,6 km/h (3 Bft) 97,45 %
20.06.2016 18:00 16,3 C 15,5 C 14,6 C 94 % 15 lf 1014,4 hPa 3,8 l/m 0,00 h 1,00 h 64 W/m 16,2 km/h (3 Bft) 95,72 %
20.06.2016 19:00 15,8 C 15,0 C 14,4 C 96 % 15 lf 1013,8 hPa 1,8 l/m 0,00 h 0,93 h 47 W/m 20,8 km/h (4 Bft) 95,89 %
20.06.2016 20:00 15,5 C 15,0 C 14,4 C 97 % 15 lf 1013,6 hPa 1,2 l/m 0,00 h 0,37 h 26 W/m 18,5 km/h (3 Bft) 96,13 %
20.06.2016 21:00 15,6 C 15,1 C 14,4 C 98 % 15 lf 1013,6 hPa 0,4 l/m 0,00 h 0,10 h 12 W/m 20,1 km/h (4 Bft) 96,67 %
20.06.2016 22:00 15,7 C 15,6 C 14,4 C 98 % 15 lf 1014,0 hPa 0,0 l/m 0,00 h 0,07 h 5 W/m 22,1 km/h (4 Bft) 95,77 %
20.06.2016 23:00 15,9 C 15,6 C 14,4 C 98 % 15 lf 1014,6 hPa 0,0 l/m 0,00 h 0,00 h 5 W/m 18,7 km/h (3 Bft) 94,91 %
21.06.2016 00:00 15,8 C 15,6 C 14,4 C 98 % 15 lf 1015,2 hPa 0,0 l/m 0,00 h 0,00 h 5 W/m 15,1 km/h (3 Bft) 75,84 %
21.06.2016 01:00 15,5 C 15,0 C 13,6 C 98 % 15 lf 1015,6 hPa 0,0 l/m 0,00 h 0,00 h 5 W/m 14,4 km/h (3 Bft) 96,96 %
21.06.2016 02:00 15,2 C 14,6 C 13,3 C 98 % 15 lf 1015,9 hPa 0,0 l/m 0,00 h 0,00 h 5 W/m 10,9 km/h (2 Bft) 95,68 %
21.06.2016 03:00 15,2 C 15,0 C 13,5 C 98 % 15 lf 1015,9 hPa 0,0 l/m 0,00 h 0,00 h 5 W/m 10,3 km/h (2 Bft) 95,86 %
21.06.2016 04:00 15,4 C 15,2 C 13,9 C 99 % 15 lf 1016,2 hPa 0,0 l/m 0,00 h 0,00 h 5 W/m 11,5 km/h (2 Bft) 96,71 %
21.06.2016 05:00 15,3 C 15,0 C 13,9 C 99 % 15 lf 1016,3 hPa 0,0 l/m 0,00 h 0,00 h 9 W/m 10,6 km/h (2 Bft) 96,37 %
21.06.2016 06:00 15,4 C 15,4 C 14,4 C 99 % 11 lf 1016,6 hPa 0,0 l/m 0,00 h 0,00 h 15 W/m 9,6 km/h (2 Bft) 96,34 %
21.06.2016 07:00 15,5 C 15,6 C 14,4 C 99 % 5 lf 1017,1 hPa 0,0 l/m 0,00 h 0,00 h 26 W/m 8,1 km/h (2 Bft) 95,50 %
21.06.2016 08:00 15,8 C 16,3 C 15,4 C 99 % 1 lf 1017,6 hPa 0,0 l/m 0,00 h 0,00 h 81 W/m 7,8 km/h (2 Bft) 96,15 %
21.06.2016 09:00 16,4 C 17,8 C 17,0 C 99 % 0 lf 1018,1 hPa 0,0 l/m 0,00 h 0,00 h 160 W/m 13,6 km/h (3 Bft) 96,87 %
21.06.2016 10:00 17,1 C 18,5 C 17,4 C 98 % 0 lf 1018,5 hPa 0,0 l/m 0,00 h 0,00 h 126 W/m 8,1 km/h (2 Bft) 92,97 %
21.06.2016 11:00 17,9 C 20,5 C 19,7 C 96 % 0 lf 1018,7 hPa 0,0 l/m 0,17 h 0,00 h 276 W/m 12,2 km/h (2 Bft) 95,56 %
21.06.2016 12:00 19,5 C 22,2 C 21,5 C 90 % 0 lf 1018,8 hPa 0,0 l/m 0,10 h 0,00 h 316 W/m 15,6 km/h (3 Bft) 99,02 %
21.06.2016 13:00 20,9 C 24,0 C 22,7 C 86 % 2 lf 1018,7 hPa 0,0 l/m 0,33 h 0,23 h 355 W/m 10,5 km/h (2 Bft) 94,19 %
21.06.2016 14:00 21,7 C 25,6 C 24,3 C 85 % 2 lf 1018,6 hPa 0,0 l/m 0,70 h 0,03 h 465 W/m 8,1 km/h (2 Bft) 95,77 %
21.06.2016 15:00 22,8 C 24,5 C 25,0 C 80 % 0 lf 1018,4 hPa 0,0 l/m 0,33 h 0,00 h 345 W/m 11,2 km/h (2 Bft) 98,16 %
21.06.2016 16:00 22,6 C 24,3 C 24,3 C 81 % 0 lf 1018,3 hPa 0,0 l/m 0,33 h 0,00 h 292 W/m 10,2 km/h (2 Bft) 95,23 %
21.06.2016 17:00 22,9 C 24,8 C 24,0 C 78 % 0 lf 1018,3 hPa 0,0 l/m 0,43 h 0,00 h 299 W/m 11,8 km/h (2 Bft) 94,92 %
21.06.2016 18:00 22,9 C 23,7 C 23,1 C 77 % 0 lf 1018,3 hPa 0,0 l/m 0,63 h 0,00 h 255 W/m 17,6 km/h (3 Bft) 97,90 %
21.06.2016 19:00 22,1 C 22,8 C 21,6 C 79 % 0 lf 1018,4 hPa 0,0 l/m 0,43 h 0,00 h 163 W/m 14,2 km/h (3 Bft) 96,09 %
21.06.2016 20:00 21,3 C 21,1 C 19,7 C 82 % 0 lf 1018,5 hPa 0,0 l/m 0,00 h 0,00 h 50 W/m 8,7 km/h (2 Bft) 94,02 %
21.06.2016 21:00 20,7 C 20,3 C 18,6 C 84 % 0 lf 1018,8 hPa 0,0 l/m 0,00 h 0,00 h 18 W/m 7,5 km/h (2 Bft) 97,30 %
21.06.2016 22:00 20,2 C 19,9 C 18,3 C 86 % 0 lf 1019,2 hPa 0,0 l/m 0,00 h 0,00 h 7 W/m 11,9 km/h (2 Bft) 96,99 %
21.06.2016 23:00 19,5 C 18,3 C 17,0 C 89 % 8 lf 1019,7 hPa 0,0 l/m 0,00 h 0,20 h 0 W/m 11,8 km/h (2 Bft) 94,98 %
22.06.2016 00:00 18,6 C 17,3 C 16,3 C 93 % 15 lf 1020,1 hPa 0,2 l/m 0,00 h 0,20 h 0 W/m 8,8 km/h (2 Bft) 95,50 %
22.06.2016 01:00 17,8 C 16,7 C 15,4 C 95 % 15 lf 1020,4 hPa 0,0 l/m 0,00 h 0,00 h 0 W/m 5,6 km/h (1 Bft) 97,81 %
22.06.2016 02:00 17,0 C 16,1 C 14,5 C 95 % 15 lf 1020,6 hPa 0,0 l/m 0,00 h 0,00 h 0 W/m 5,0 km/h (1 Bft) 96,22 %
22.06.2016 03:00 16,8 C 16,1 C 14,7 C 96 % 15 lf 1020,6 hPa 0,0 l/m 0,00 h 0,00 h 0 W/m 6,3 km/h (2 Bft) 94,19 %
22.06.2016 04:00 16,3 C 15,5 C 13,7 C 96 % 15 lf 1020,7 hPa 0,0 l/m 0,00 h 0,00 h 0 W/m 4,5 km/h (1 Bft) 97,70 %
22.06.2016 05:00 15,7 C 15,2 C 13,6 C 96 % 15 lf 1020,9 hPa 0,0 l/m 0,43 h 0,00 h 47 W/m 4,0 km/h (1 Bft) 95,80 %
22.06.2016 06:00 15,8 C 15,8 C 14,2 C 97 % 15 lf 1021,3 hPa 0,0 l/m 1,00 h 0,00 h 93 W/m 3,4 km/h (1 Bft) 95,57 %
22.06.2016 07:00 16,4 C 17,7 C 15,3 C 98 % 14 lf 1021,6 hPa 0,0 l/m 1,00 h 0,00 h 233 W/m 5,2 km/h (1 Bft) 95,65 %
22.06.2016 08:00 17,6 C 21,8 C 17,8 C 99 % 0 lf 1021,9 hPa 0,2 l/m 1,00 h 0,00 h 336 W/m 7,3 km/h (2 Bft) 96,46 %
22.06.2016 09:00 19,3 C 27,1 C 19,8 C 96 % 0 lf 1021,9 hPa 0,0 l/m 0,77 h 0,00 h 537 W/m 8,3 km/h (2 Bft) 96,02 %
22.06.2016 10:00 22,3 C 29,0 C 22,1 C 84 % 0 lf 1021,9 hPa 0,0 l/m 0,87 h 0,00 h 636 W/m 7,9 km/h (2 Bft) 96,62 %
22.06.2016 11:00 23,1 C 28,0 C 25,7 C 80 % 0 lf 1021,9 hPa 0,0 l/m 0,98 h 0,00 h 556 W/m 11,2 km/h (2 Bft) 93,88 %
22.06.2016 12:00 24,1 C 28,4 C 26,7 C 74 % 0 lf 1021,9 hPa 0,0 l/m 0,78 h 0,00 h 584 W/m 15,0 km/h (3 Bft) 96,85 %
22.06.2016 13:00 24,7 C 28,2 C 26,6 C 71 % 0 lf 1022,0 hPa 0,0 l/m 0,53 h 0,00 h 466 W/m 12,8 km/h (3 Bft) 97,37 %
22.06.2016 14:00 25,4 C 29,3 C 28,0 C 68 % 0 lf 1022,0 hPa 0,0 l/m 0,67 h 0,00 h 494 W/m 14,2 km/h (3 Bft) 93,42 %
22.06.2016 15:00 26,3 C 30,6 C 30,7 C 66 % 0 lf 1021,8 hPa 0,0 l/m 0,77 h 0,00 h 528 W/m 11,2 km/h (2 Bft) 97,37 %
22.06.2016 16:00 26,1 C 27,1 C 26,2 C 67 % 0 lf 1021,7 hPa 0,0 l/m 0,13 h 0,00 h 264 W/m 7,5 km/h (2 Bft) 97,29 %
22.06.2016 17:00 25,7 C 27,0 C 23,1 C 70 % 0 lf 1021,4 hPa 0,0 l/m 0,70 h 0,00 h 335 W/m 12,8 km/h (3 Bft) 94,02 %
22.06.2016 18:00 25,3 C 26,1 C 24,3 C 71 % 0 lf 1021,0 hPa 0,0 l/m 0,53 h 0,00 h 237 W/m 13,5 km/h (3 Bft) 97,01 %
22.06.2016 19:00 25,0 C 25,0 C 23,8 C 74 % 0 lf 1020,8 hPa 0,0 l/m 0,23 h 0,00 h 134 W/m 13,5 km/h (3 Bft) 97,15 %
22.06.2016 20:00 24,5 C 24,5 C 22,7 C 76 % 0 lf 1020,5 hPa 0,0 l/m 0,97 h 0,00 h 124 W/m 12,6 km/h (3 Bft) 94,97 %
22.06.2016 21:00 23,9 C 23,3 C 20,9 C 78 % 0 lf 1020,6 hPa 0,0 l/m 0,70 h 0,00 h 34 W/m 8,1 km/h (2 Bft) 97,44 %
22.06.2016 22:00 22,7 C 21,4 C 18,6 C 81 % 0 lf 1020,6 hPa 0,0 l/m 0,00 h 0,00 h 12 W/m 6,4 km/h (2 Bft) 95,59 %
22.06.2016 23:00 21,3 C 20,2 C 17,9 C 86 % 0 lf 1020,3 hPa 0,0 l/m 0,00 h 0,00 h 0 W/m 7,2 km/h (2 Bft) 97,36 %
23.06.2016 00:00 20,3 C 19,5 C 17,5 C 89 % 0 lf 1020,1 hPa 0,0 l/m 0,00 h 0,00 h 0 W/m 6,7 km/h (2 Bft) 94,28 %
23.06.2016 01:00 19,9 C 19,7 C 17,9 C 91 % 0 lf 1020,1 hPa 0,0 l/m 0,00 h 0,00 h 0 W/m 6,5 km/h (2 Bft) 97,43 %
23.06.2016 02:00 19,5 C 18,6 C 16,8 C 92 % 1 lf 1019,7 hPa 0,0 l/m 0,00 h 0,00 h 0 W/m 5,9 km/h (2 Bft) 97,29 %
23.06.2016 03:00 19,0 C 18,5 C 16,7 C 93 % 1 lf 1019,3 hPa 0,0 l/m 0,00 h 0,00 h 0 W/m 7,1 km/h (2 Bft) 94,02 %
23.06.2016 04:00 18,9 C 18,9 C 17,2 C 95 % 1 lf 1018,7 hPa 0,0 l/m 0,00 h 0,00 h 0 W/m 8,8 km/h (2 Bft) 97,09 %
23.06.2016 05:00 18,7 C 18,4 C 16,5 C 95 % 1 lf 1018,4 hPa 0,0 l/m 0,43 h 0,00 h 23 W/m 7,1 km/h (2 Bft) 98,00 %
23.06.2016 06:00 18,5 C 18,7 C 16,7 C 96 % 1 lf 1018,1 hPa 0,0 l/m 1,00 h 0,00 h 113 W/m 9,5 km/h (2 Bft) 94,13 %
23.06.2016 07:00 19,2 C 20,3 C 18,4 C 96 % 0 lf 1017,9 hPa 0,0 l/m 1,00 h 0,00 h 278 W/m 14,8 km/h (3 Bft) 96,72 %
23.06.2016 08:00 21,1 C 25,0 C 20,0 C 92 % 0 lf 1017,6 hPa 0,0 l/m 1,00 h 0,00 h 440 W/m 15,9 km/h (3 Bft) 97,15 %
23.06.2016 09:00 24,3 C 29,9 C 22,4 C 82 % 0 lf 1017,6 hPa 0,0 l/m 1,00 h 0,00 h 594 W/m 15,9 km/h (3 Bft) 95,01 %
23.06.2016 10:00 26,8 C 32,2 C 31,0 C 75 % 0 lf 1017,2 hPa 0,0 l/m 1,00 h 0,00 h 747 W/m 17,9 km/h (3 Bft) 95,94 %
23.06.2016 11:00 28,1 C 32,5 C 31,8 C 73 % 0 lf 1016,8 hPa 0,0 l/m 0,87 h 0,00 h 722 W/m 16,8 km/h (3 Bft) 97,65 %
23.06.2016 12:00 29,8 C 35,0 C 33,5 C 70 % 0 lf 1016,6 hPa 0,0 l/m 0,93 h 0,00 h 782 W/m 15,2 km/h (3 Bft) 95,31 %
23.06.2016 13:00 31,1 C 35,6 C 32,5 C 66 % 0 lf 1016,0 hPa 0,0 l/m 0,77 h 0,07 h 686 W/m 15,3 km/h (3 Bft) 97,42 %
23.06.2016 14:00 31,9 C 37,0 C 37,4 C 65 % 0 lf 1015,4 hPa 0,0 l/m 1,00 h 0,00 h 834 W/m 17,4 km/h (3 Bft) 94,68 %
23.06.2016 15:00 33,4 C 38,5 C 42,0 C 62 % 0 lf 1014,8 hPa 0,0 l/m 1,00 h 0,00 h 822 W/m 13,7 km/h (3 Bft) 95,94 %
23.06.2016 16:00 34,1 C 38,1 C 40,6 C 60 % 0 lf 1014,4 hPa 0,0 l/m 0,70 h 0,00 h 574 W/m 14,4 km/h (3 Bft) 99,01 %
23.06.2016 17:00 34,3 C 36,9 C 37,4 C 57 % 0 lf 1014,0 hPa 0,0 l/m 1,00 h 0,00 h 612 W/m 18,8 km/h (3 Bft) 96,77 %
23.06.2016 18:00 33,3 C 33,1 C 30,6 C 59 % 0 lf 1013,8 hPa 0,0 l/m 0,37 h 0,00 h 226 W/m 14,6 km/h (3 Bft) 93,81 %
23.06.2016 19:00 31,1 C 29,7 C 26,9 C 66 % 0 lf 1013,6 hPa 0,0 l/m 0,07 h 0,00 h 48 W/m 6,4 km/h (2 Bft) 97,65 %
23.06.2016 20:00 29,3 C 27,7 C 24,8 C 73 % 0 lf 1013,2 hPa 0,0 l/m 0,00 h 0,00 h 17 W/m 2,3 km/h (1 Bft) 96,87 %
23.06.2016 21:00 27,9 C 26,8 C 24,5 C 76 % 0 lf 1013,5 hPa 0,0 l/m 0,00 h 0,00 h 7 W/m 2,6 km/h (1 Bft) 94,32 %
23.06.2016 22:00 25,4 C 24,2 C 22,7 C 79 % 0 lf 1015,3 hPa 0,0 l/m 0,00 h 0,00 h 0 W/m 29,4 km/h (5 Bft) 98,42 %
23.06.2016 23:00 22,4 C 20,6 C 19,3 C 88 % 14 lf 1017,2 hPa 2,0 l/m 0,00 h 0,50 h 5 W/m 19,4 km/h (3 Bft) 95,79 %
24.06.2016 00:00 20,7 C 19,4 C 18,3 C 92 % 15 lf 1015,6 hPa 0,0 l/m 0,00 h 0,00 h 5 W/m 11,6 km/h (2 Bft) 92,76 %
24.06.2016 01:00 20,2 C 19,4 C 18,3 C 95 % 15 lf 1015,5 hPa 0,0 l/m 0,00 h 0,00 h 5 W/m 8,8 km/h (2 Bft) 95,16 %
24.06.2016 02:00 20,0 C 19,3 C 18,3 C 96 % 15 lf 1016,4 hPa 17,2 l/m 0,00 h 0,73 h 5 W/m 11,0 km/h (2 Bft) 97,08 %
24.06.2016 03:00 19,7 C 18,9 C 17,8 C 97 % 15 lf 1016,0 hPa 7,6 l/m 0,00 h 0,53 h 0 W/m 8,8 km/h (2 Bft) 95,37 %
24.06.2016 04:00 19,6 C 18,9 C 17,8 C 98 % 15 lf 1015,5 hPa 0,0 l/m 0,00 h 0,08 h 0 W/m 9,5 km/h (2 Bft) 95,81 %
24.06.2016 05:00 19,3 C 18,9 C 17,8 C 98 % 15 lf 1015,3 hPa 0,0 l/m 0,00 h 0,13 h 11 W/m 4,7 km/h (1 Bft) 95,59 %
24.06.2016 06:00 19,5 C 19,2 C 18,2 C 99 % 15 lf 1015,8 hPa 0,8 l/m 0,00 h 0,73 h 24 W/m 11,7 km/h (2 Bft) 97,15 %
24.06.2016 07:00 19,6 C 19,6 C 18,5 C 99 % 15 lf 1014,9 hPa 0,6 l/m 0,00 h 0,30 h 56 W/m 7,8 km/h (2 Bft) 95,51 %
24.06.2016 08:00 20,1 C 20,9 C 19,3 C 99 % 15 lf 1015,6 hPa 0,0 l/m 0,17 h 0,00 h 154 W/m 7,8 km/h (2 Bft) 96,49 %
24.06.2016 09:00 21,4 C 27,0 C 21,0 C 100 % 6 lf 1015,7 hPa 0,0 l/m 0,90 h 0,00 h 524 W/m 8,4 km/h (2 Bft) 95,02 %
24.06.2016 10:00 22,7 C 27,5 C 23,7 C 96 % 0 lf 1015,9 hPa 0,0 l/m 0,43 h 0,00 h 371 W/m 11,7 km/h (2 Bft) 97,17 %
24.06.2016 11:00 24,0 C 26,9 C 24,8 C 87 % 0 lf 1016,5 hPa 0,0 l/m 0,07 h 0,00 h 292 W/m 9,2 km/h (2 Bft) 95,80 %
24.06.2016 12:00 24,5 C 27,4 C 26,2 C 85 % 0 lf 1016,6 hPa 0,0 l/m 0,07 h 0,00 h 339 W/m 12,7 km/h (3 Bft) 95,90 %
24.06.2016 13:00 24,5 C 27,0 C 25,6 C 84 % 0 lf 1016,8 hPa 0,0 l/m 0,37 h 0,00 h 376 W/m 19,5 km/h (3 Bft) 96,44 %
24.06.2016 14:00 24,7 C 28,1 C 27,4 C 81 % 0 lf 1016,9 hPa 0,0 l/m 0,60 h 0,00 h 431 W/m 18,4 km/h (3 Bft) 97,43 %
24.06.2016 15:00 25,0 C 28,6 C 27,6 C 78 % 0 lf 1017,1 hPa 0,0 l/m 0,37 h 0,00 h 415 W/m 13,1 km/h (3 Bft) 93,74 %
24.06.2016 16:00 26,1 C 30,7 C 30,0 C 74 % 0 lf 1016,6 hPa 0,0 l/m 0,63 h 0,00 h 483 W/m 12,1 km/h (2 Bft) 97,29 %
24.06.2016 17:00 25,6 C 26,9 C 25,9 C 76 % 0 lf 1016,4 hPa 0,0 l/m 0,07 h 0,00 h 221 W/m 13,1 km/h (3 Bft) 96,94 %
24.06.2016 18:00 24,5 C 25,2 C 23,8 C 78 % 0 lf 1016,7 hPa 0,0 l/m 0,13 h 0,00 h 130 W/m 11,5 km/h (2 Bft) 95,31 %
24.06.2016 19:00 23,5 C 23,7 C 22,4 C 81 % 0 lf 1016,4 hPa 0,0 l/m 0,00 h 0,00 h 80 W/m 9,9 km/h (2 Bft) 95,74 %
24.06.2016 20:00 23,0 C 23,5 C 22,1 C 82 % 0 lf 1016,6 hPa 0,0 l/m 0,60 h 0,00 h 111 W/m 8,8 km/h (2 Bft) 97,65 %
24.06.2016 21:00 22,3 C 21,5 C 20,1 C 84 % 0 lf 1016,9 hPa 0,0 l/m 0,00 h 0,00 h 15 W/m 6,9 km/h (2 Bft) 95,23 %
24.06.2016 22:00 21,2 C 19,6 C 18,4 C 86 % 0 lf 1017,0 hPa 0,0 l/m 0,00 h 0,00 h 5 W/m 2,7 km/h (1 Bft) 96,22 %
24.06.2016 23:00 20,3 C 18,6 C 17,5 C 89 % 0 lf 1016,8 hPa 0,0 l/m 0,00 h 0,00 h 0 W/m 5,6 km/h (1 Bft) 95,62 %
25.06.2016 00:00 19,2 C 17,9 C 16,7 C 88 % 0 lf 1016,9 hPa 0,0 l/m 0,00 h 0,00 h 0 W/m 5,1 km/h (1 Bft) 97,69 %
25.06.2016 01:00 18,3 C 17,0 C 16,0 C 88 % 0 lf 1016,8 hPa 0,0 l/m 0,00 h 0,00 h 0 W/m 4,8 km/h (1 Bft) 94,38 %
25.06.2016 02:00 17,7 C 17,2 C 16,1 C 90 % 0 lf 1015,9 hPa 0,0 l/m 0,00 h 0,03 h 0 W/m 6,7 km/h (2 Bft) 96,87 %
25.06.2016 03:00 17,7 C 16,8 C 15,7 C 92 % 13 lf 1015,4 hPa 0,0 l/m 0,00 h 0,77 h 0 W/m 8,5 km/h (2 Bft) 97,08 %
25.06.2016 04:00 17,4 C 16,7 C 15,5 C 94 % 15 lf 1015,3 hPa 0,2 l/m 0,00 h 0,62 h 0 W/m 8,0 km/h (2 Bft) 94,90 %
25.06.2016 05:00 17,1 C 16,7 C 15,4 C 94 % 7 lf 1015,0 hPa 0,0 l/m 0,00 h 0,00 h 7 W/m 7,5 km/h (2 Bft) 94,95 %
25.06.2016 06:00 16,9 C 16,7 C 15,7 C 94 % 0 lf 1014,6 hPa 0,0 l/m 0,00 h 0,00 h 15 W/m 6,6 km/h (2 Bft) 98,01 %
25.06.2016 07:00 16,8 C 17,0 C 16,2 C 94 % 0 lf 1014,6 hPa 0,0 l/m 0,00 h 0,07 h 38 W/m 9,0 km/h (2 Bft) 95,87 %
25.06.2016 08:00 17,0 C 17,7 C 16,7 C 93 % 0 lf 1014,3 hPa 0,0 l/m 0,00 h 0,00 h 74 W/m 10,9 km/h (2 Bft) 94,87 %
25.06.2016 09:00 17,2 C 18,0 C 16,9 C 90 % 0 lf 1014,0 hPa 0,0 l/m 0,00 h 0,03 h 73 W/m 12,3 km/h (3 Bft) 96,86 %
25.06.2016 10:00 17,3 C 18,3 C 16,8 C 88 % 1 lf 1013,7 hPa 0,0 l/m 0,00 h 0,30 h 110 W/m 13,7 km/h (3 Bft) 95,76 %
25.06.2016 11:00 17,6 C 18,8 C 16,8 C 86 % 8 lf 1013,6 hPa 0,0 l/m 0,00 h 0,70 h 142 W/m 11,7 km/h (2 Bft) 97,08 %
25.06.2016 12:00 17,9 C 18,9 C 16,5 C 88 % 15 lf 1014,2 hPa 0,2 l/m 0,00 h 1,00 h 186 W/m 9,6 km/h (2 Bft) 95,87 %
25.06.2016 13:00 18,0 C 19,4 C 16,1 C 88 % 15 lf 1014,3 hPa 0,2 l/m 0,00 h 1,00 h 184 W/m 9,2 km/h (2 Bft) 95,51 %
25.06.2016 14:00 17,9 C 18,3 C 16,1 C 89 % 15 lf 1014,1 hPa 0,2 l/m 0,00 h 1,00 h 135 W/m 10,4 km/h (2 Bft) 97,93 %
25.06.2016 15:00 17,1 C 15,7 C 14,9 C 91 % 15 lf 1014,7 hPa 2,4 l/m 0,00 h 1,00 h 45 W/m 11,9 km/h (2 Bft) 95,52 %
25.06.2016 16:00 15,8 C 15,2 C 14,2 C 94 % 15 lf 1014,9 hPa 4,6 l/m 0,00 h 1,00 h 59 W/m 9,4 km/h (2 Bft) 94,38 %
25.06.2016 17:00 15,6 C 15,2 C 14,4 C 96 % 15 lf 1014,9 hPa 1,8 l/m 0,00 h 0,87 h 73 W/m 13,9 km/h (3 Bft) 97,79 %
25.06.2016 18:00 15,6 C 15,9 C 15,2 C 97 % 15 lf 1015,0 hPa 0,0 l/m 0,00 h 0,00 h 136 W/m 12,2 km/h (2 Bft) 96,22 %
25.06.2016 19:00 15,6 C 16,0 C 15,2 C 96 % 9 lf 1014,7 hPa 0,0 l/m 0,20 h 0,00 h 135 W/m 6,4 km/h (2 Bft) 94,73 %
25.06.2016 20:00 15,8 C 15,7 C 14,6 C 95 % 0 lf 1015,0 hPa 0,0 l/m 0,73 h 0,00 h 120 W/m 9,0 km/h (2 Bft) 97,00 %
25.06.2016 21:00 15,6 C 15,2 C 13,8 C 94 % 0 lf 1015,6 hPa 0,0 l/m 0,00 h 0,00 h 17 W/m 7,2 km/h (2 Bft) 96,66 %
25.06.2016 22:00 15,0 C 14,5 C 13,2 C 94 % 2 lf 1015,8 hPa 0,0 l/m 0,00 h 0,17 h 0 W/m 7,6 km/h (2 Bft) 95,23 %
25.06.2016 23:00 14,1 C 13,1 C 11,9 C 92 % 0 lf 1016,0 hPa 0,0 l/m 0,00 h 0,00 h 0 W/m 4,2 km/h (1 Bft) 96,55 %
26.06.2016 00:00 13,3 C 12,0 C 11,0 C 92 % 6 lf 1016,1 hPa 0,0 l/m 0,00 h 0,00 h 0 W/m 4,7 km/h (1 Bft) 95,52 %
26.06.2016 01:00 12,9 C 12,2 C 11,1 C 94 % 15 lf 1016,1 hPa 0,0 l/m 0,00 h 0,00 h 0 W/m 8,4 km/h (2 Bft) 97,01 %
26.06.2016 02:00 12,7 C 12,0 C 10,8 C 96 % 15 lf 1016,0 hPa 0,0 l/m 0,00 h 0,00 h 0 W/m 9,5 km/h (2 Bft) 95,51 %
26.06.2016 03:00 12,4 C 11,9 C 10,6 C 96 % 15 lf 1016,0 hPa 0,0 l/m 0,00 h 0,00 h 0 W/m 10,4 km/h (2 Bft) 95,59 %
26.06.2016 04:00 12,2 C 11,8 C 10,6 C 97 % 15 lf 1015,8 hPa 0,0 l/m 0,00 h 0,00 h 0 W/m 9,4 km/h (2 Bft) 96,23 %
26.06.2016 05:00 12,1 C 11,9 C 10,6 C 97 % 15 lf 1015,9 hPa 0,0 l/m 0,03 h 0,00 h 13 W/m 10,6 km/h (2 Bft) 96,72 %
26.06.2016 06:00 12,0 C 12,2 C 10,7 C 97 % 13 lf 1016,0 hPa 0,0 l/m 0,93 h 0,00 h 100 W/m 11,9 km/h (2 Bft) 97,51 %
26.06.2016 07:00 12,5 C 13,8 C 12,2 C 97 % 0 lf 1016,3 hPa 0,0 l/m 0,65 h 0,00 h 172 W/m 16,0 km/h (3 Bft) 94,46 %
26.06.2016 08:00 13,2 C 14,3 C 13,0 C 94 % 0 lf 1016,7 hPa 0,0 l/m 0,00 h 0,00 h 124 W/m 15,8 km/h (3 Bft) 96,72 %
26.06.2016 09:00 13,9 C 15,8 C 15,0 C 91 % 0 lf 1017,1 hPa 0,0 l/m 0,17 h 0,00 h 205 W/m 15,1 km/h (3 Bft) 97,31 %
26.06.2016 10:00 15,2 C 17,8 C 17,3 C 88 % 0 lf 1017,1 hPa 0,0 l/m 0,47 h 0,00 h 315 W/m 16,1 km/h (3 Bft) 95,59 %
26.06.2016 11:00 16,5 C 19,5 C 18,8 C 82 % 0 lf 1017,0 hPa 0,0 l/m 0,20 h 0,00 h 322 W/m 17,4 km/h (3 Bft) 95,64 %
26.06.2016 12:00 18,5 C 23,8 C 22,2 C 76 % 0 lf 1016,7 hPa 0,0 l/m 0,63 h 0,00 h 643 W/m 17,4 km/h (3 Bft) 97,09 %
26.06.2016 13:00 19,1 C 22,2 C 20,5 C 74 % 0 lf 1016,6 hPa 0,0 l/m 0,43 h 0,17 h 386 W/m 19,3 km/h (3 Bft) 97,01 %
26.06.2016 14:00 20,1 C 24,5 C 23,6 C 73 % 3 lf 1016,3 hPa 0,2 l/m 0,63 h 0,20 h 743 W/m 18,5 km/h (3 Bft) 94,23 %
26.06.2016 15:00 18,0 C 17,4 C 16,4 C 76 % 10 lf 1017,0 hPa 0,4 l/m 0,03 h 0,80 h 181 W/m 26,1 km/h (4 Bft) 96,77 %
26.06.2016 16:00 15,8 C 17,8 C 16,6 C 87 % 11 lf 1017,1 hPa 0,0 l/m 0,40 h 0,63 h 402 W/m 11,2 km/h (2 Bft) 97,16 %
26.06.2016 17:00 18,4 C 22,4 C 21,9 C 78 % 0 lf 1017,0 hPa 0,0 l/m 0,90 h 0,00 h 580 W/m 15,7 km/h (3 Bft) 95,24 %
26.06.2016 18:00 18,7 C 19,3 C 18,6 C 76 % 0 lf 1016,8 hPa 0,0 l/m 0,67 h 0,00 h 364 W/m 15,5 km/h (3 Bft) 95,60 %
26.06.2016 19:00 17,8 C 17,6 C 16,4 C 77 % 0 lf 1016,6 hPa 0,0 l/m 0,27 h 0,00 h 121 W/m 14,2 km/h (3 Bft) 98,58 %
26.06.2016 20:00 17,1 C 17,4 C 15,8 C 79 % 0 lf 1016,7 hPa 0,0 l/m 0,90 h 0,10 h 144 W/m 15,5 km/h (3 Bft) 93,53 %
26.06.2016 21:00 16,3 C 15,1 C 13,7 C 82 % 0 lf 1017,0 hPa 0,0 l/m 0,00 h 0,00 h 15 W/m 8,7 km/h (2 Bft) 96,05 %
26.06.2016 22:00 15,0 C 13,9 C 12,6 C 85 % 0 lf 1017,7 hPa 0,0 l/m 0,00 h 0,00 h 4 W/m 9,3 km/h (2 Bft) 97,23 %
26.06.2016 23:00 14,0 C 13,2 C 12,0 C 88 % 0 lf 1017,9 hPa 0,0 l/m 0,00 h 0,00 h 0 W/m 10,7 km/h (2 Bft) 96,08 %
Min-Datum _ 20.06.16 20.06.16 20.06.16 23.06.16 20.06.16 23.06.16 - - - - 20.06.16 20.06.16
_ Min-Zeit 05:54 05:06 04:32 17:28 01:48 20:12 - - - - 00:00 04:03
Minimum _ 10,0 C 10,0 C 8,9 C 54 % 0 lf 1013,1 hPa - - - - 0,0 km/h (0 Bft) 0,00 %
Max-Datum _ 23.06.16 23.06.16 23.06.16 24.06.16 20.06.16 20.06.16 24.06.16 20.06.16 20.06.16 22.06.16 23.06.16 20.06.16
_ Max-Zeit 16:46 14:56 15:42 08:56 16:26 00:00 02:32 05:32 11:30 12:40 22:36 00:08
Maximum _ 34,6 C 42,8 C 43,9 C 100 % 15 lf 1023,1 hPa 17,2 l/m 0,03 h 0,03 h 1392 W/m 48,1 km/h
W-NW (6 Bft)
100,00 %
Durchschnitt _ 19,3 C 20,2 C 18,8 C 87 % 5 lf 1017,3 hPa #48,8 l/m #45:05 h #19:36 h 218 W/m 11,6 km/h (2 Bft) 95,87 %
© 2016 W. Hausmann